sensor_id;sensor_type;location;lat;lon;timestamp;P1;durP1;ratioP1;P2;durP2;ratioP2
79670;SDS011;69137;50.878;8.050;2023-12-20T00:00:54;3.40;;;2.30;;
79670;SDS011;69137;50.878;8.050;2023-12-20T00:03:19;3.40;;;2.03;;
79670;SDS011;69137;50.878;8.050;2023-12-20T00:05:44;4.03;;;2.27;;
79670;SDS011;69137;50.878;8.050;2023-12-20T00:08:09;6.43;;;2.55;;
79670;SDS011;69137;50.878;8.050;2023-12-20T00:10:35;3.87;;;2.73;;
79670;SDS011;69137;50.878;8.050;2023-12-20T00:13:00;3.87;;;2.70;;
79670;SDS011;69137;50.878;8.050;2023-12-20T00:15:26;4.15;;;2.42;;
79670;SDS011;69137;50.878;8.050;2023-12-20T00:17:51;2.53;;;1.80;;
79670;SDS011;69137;50.878;8.050;2023-12-20T00:20:16;4.27;;;2.77;;
79670;SDS011;69137;50.878;8.050;2023-12-20T00:22:41;3.87;;;2.03;;
79670;SDS011;69137;50.878;8.050;2023-12-20T00:25:07;2.83;;;2.13;;
79670;SDS011;69137;50.878;8.050;2023-12-20T00:27:32;3.78;;;2.58;;
79670;SDS011;69137;50.878;8.050;2023-12-20T00:29:58;5.27;;;2.90;;
79670;SDS011;69137;50.878;8.050;2023-12-20T00:32:23;3.50;;;2.50;;
79670;SDS011;69137;50.878;8.050;2023-12-20T00:34:48;2.67;;;2.07;;
79670;SDS011;69137;50.878;8.050;2023-12-20T00:37:13;3.77;;;2.50;;
79670;SDS011;69137;50.878;8.050;2023-12-20T00:39:39;4.70;;;2.63;;
79670;SDS011;69137;50.878;8.050;2023-12-20T00:42:04;5.40;;;3.00;;
79670;SDS011;69137;50.878;8.050;2023-12-20T00:44:29;4.03;;;2.60;;
79670;SDS011;69137;50.878;8.050;2023-12-20T00:46:55;4.27;;;2.57;;
79670;SDS011;69137;50.878;8.050;2023-12-20T00:49:20;3.03;;;2.17;;
79670;SDS011;69137;50.878;8.050;2023-12-20T00:51:45;3.17;;;2.33;;
79670;SDS011;69137;50.878;8.050;2023-12-20T00:54:11;3.75;;;2.60;;
79670;SDS011;69137;50.878;8.050;2023-12-20T00:56:37;7.17;;;2.23;;
79670;SDS011;69137;50.878;8.050;2023-12-20T00:59:02;3.27;;;2.27;;
79670;SDS011;69137;50.878;8.050;2023-12-20T01:01:27;3.10;;;2.10;;
79670;SDS011;69137;50.878;8.050;2023-12-20T01:03:53;3.40;;;2.37;;
79670;SDS011;69137;50.878;8.050;2023-12-20T01:06:18;3.67;;;2.53;;
79670;SDS011;69137;50.878;8.050;2023-12-20T01:08:43;4.28;;;2.78;;
79670;SDS011;69137;50.878;8.050;2023-12-20T01:11:09;3.47;;;2.25;;
79670;SDS011;69137;50.878;8.050;2023-12-20T01:13:35;4.05;;;2.47;;
79670;SDS011;69137;50.878;8.050;2023-12-20T01:16:00;3.63;;;2.40;;
79670;SDS011;69137;50.878;8.050;2023-12-20T01:18:26;3.90;;;2.25;;
79670;SDS011;69137;50.878;8.050;2023-12-20T01:20:51;4.20;;;2.57;;
79670;SDS011;69137;50.878;8.050;2023-12-20T01:23:16;3.97;;;2.60;;
79670;SDS011;69137;50.878;8.050;2023-12-20T01:25:42;3.50;;;2.43;;
79670;SDS011;69137;50.878;8.050;2023-12-20T01:28:08;3.88;;;2.50;;
79670;SDS011;69137;50.878;8.050;2023-12-20T01:30:33;4.23;;;2.70;;
79670;SDS011;69137;50.878;8.050;2023-12-20T01:32:59;3.80;;;2.33;;
79670;SDS011;69137;50.878;8.050;2023-12-20T01:35:25;4.20;;;2.60;;
79670;SDS011;69137;50.878;8.050;2023-12-20T01:37:50;2.70;;;2.00;;
79670;SDS011;69137;50.878;8.050;2023-12-20T01:40:16;3.33;;;2.43;;
79670;SDS011;69137;50.878;8.050;2023-12-20T01:42:41;3.05;;;2.33;;
79670;SDS011;69137;50.878;8.050;2023-12-20T01:45:07;3.60;;;2.47;;
79670;SDS011;69137;50.878;8.050;2023-12-20T01:47:32;2.88;;;2.00;;
79670;SDS011;69137;50.878;8.050;2023-12-20T01:49:58;4.38;;;2.67;;
79670;SDS011;69137;50.878;8.050;2023-12-20T01:52:24;3.33;;;2.40;;
79670;SDS011;69137;50.878;8.050;2023-12-20T01:54:51;3.40;;;2.30;;
79670;SDS011;69137;50.878;8.050;2023-12-20T01:57:16;3.78;;;2.50;;
79670;SDS011;69137;50.878;8.050;2023-12-20T01:59:42;7.10;;;2.67;;
79670;SDS011;69137;50.878;8.050;2023-12-20T02:02:07;3.10;;;2.17;;
79670;SDS011;69137;50.878;8.050;2023-12-20T02:04:33;2.80;;;1.58;;
79670;SDS011;69137;50.878;8.050;2023-12-20T02:06:59;2.78;;;1.77;;
79670;SDS011;69137;50.878;8.050;2023-12-20T02:09:24;2.40;;;1.50;;
79670;SDS011;69137;50.878;8.050;2023-12-20T02:11:49;5.47;;;1.70;;
79670;SDS011;69137;50.878;8.050;2023-12-20T02:14:15;3.03;;;1.80;;
79670;SDS011;69137;50.878;8.050;2023-12-20T02:16:40;6.07;;;1.80;;
79670;SDS011;69137;50.878;8.050;2023-12-20T02:19:07;4.00;;;2.20;;
79670;SDS011;69137;50.878;8.050;2023-12-20T02:21:40;2.75;;;2.00;;
79670;SDS011;69137;50.878;8.050;2023-12-20T02:24:05;4.37;;;2.30;;
79670;SDS011;69137;50.878;8.050;2023-12-20T02:26:31;3.00;;;1.98;;
79670;SDS011;69137;50.878;8.050;2023-12-20T02:28:58;9.65;;;2.85;;
79670;SDS011;69137;50.878;8.050;2023-12-20T02:31:24;4.55;;;2.15;;
79670;SDS011;69137;50.878;8.050;2023-12-20T02:33:49;5.20;;;2.13;;
79670;SDS011;69137;50.878;8.050;2023-12-20T02:36:14;4.53;;;2.80;;
79670;SDS011;69137;50.878;8.050;2023-12-20T02:38:40;5.30;;;2.70;;
79670;SDS011;69137;50.878;8.050;2023-12-20T02:41:05;5.23;;;3.00;;
79670;SDS011;69137;50.878;8.050;2023-12-20T02:43:30;5.23;;;2.60;;
79670;SDS011;69137;50.878;8.050;2023-12-20T02:45:55;7.77;;;3.53;;
79670;SDS011;69137;50.878;8.050;2023-12-20T02:48:21;7.73;;;2.97;;
79670;SDS011;69137;50.878;8.050;2023-12-20T02:50:47;3.97;;;2.45;;
79670;SDS011;69137;50.878;8.050;2023-12-20T02:53:14;6.22;;;3.03;;
79670;SDS011;69137;50.878;8.050;2023-12-20T02:55:39;9.38;;;2.95;;
79670;SDS011;69137;50.878;8.050;2023-12-20T02:58:04;4.57;;;2.93;;
79670;SDS011;69137;50.878;8.050;2023-12-20T03:00:30;5.13;;;2.87;;
79670;SDS011;69137;50.878;8.050;2023-12-20T03:02:55;4.20;;;2.53;;
79670;SDS011;69137;50.878;8.050;2023-12-20T03:05:20;5.53;;;2.60;;
79670;SDS011;69137;50.878;8.050;2023-12-20T03:07:45;6.47;;;2.80;;
79670;SDS011;69137;50.878;8.050;2023-12-20T03:10:11;6.33;;;2.80;;
79670;SDS011;69137;50.878;8.050;2023-12-20T03:12:36;7.57;;;2.10;;
79670;SDS011;69137;50.878;8.050;2023-12-20T03:15:01;6.07;;;2.83;;
79670;SDS011;69137;50.878;8.050;2023-12-20T03:17:27;8.40;;;2.58;;
79670;SDS011;69137;50.878;8.050;2023-12-20T03:19:52;4.63;;;2.60;;
79670;SDS011;69137;50.878;8.050;2023-12-20T03:22:17;11.40;;;3.17;;
79670;SDS011;69137;50.878;8.050;2023-12-20T03:24:43;4.77;;;2.17;;
79670;SDS011;69137;50.878;8.050;2023-12-20T03:27:08;7.93;;;2.60;;
79670;SDS011;69137;50.878;8.050;2023-12-20T03:29:33;6.30;;;2.93;;
79670;SDS011;69137;50.878;8.050;2023-12-20T03:31:58;4.50;;;2.67;;
79670;SDS011;69137;50.878;8.050;2023-12-20T03:34:24;8.30;;;3.30;;
79670;SDS011;69137;50.878;8.050;2023-12-20T03:36:49;7.93;;;3.33;;
79670;SDS011;69137;50.878;8.050;2023-12-20T03:39:14;7.70;;;4.00;;
79670;SDS011;69137;50.878;8.050;2023-12-20T03:41:40;12.07;;;3.60;;
79670;SDS011;69137;50.878;8.050;2023-12-20T03:44:05;10.73;;;4.37;;
79670;SDS011;69137;50.878;8.050;2023-12-20T03:46:30;3.80;;;2.50;;
79670;SDS011;69137;50.878;8.050;2023-12-20T03:48:56;7.05;;;3.10;;
79670;SDS011;69137;50.878;8.050;2023-12-20T03:51:22;9.47;;;3.67;;
79670;SDS011;69137;50.878;8.050;2023-12-20T03:53:47;5.93;;;3.00;;
79670;SDS011;69137;50.878;8.050;2023-12-20T03:56:12;4.93;;;3.25;;
79670;SDS011;69137;50.878;8.050;2023-12-20T03:58:38;6.53;;;3.57;;
79670;SDS011;69137;50.878;8.050;2023-12-20T04:01:03;7.60;;;3.33;;
79670;SDS011;69137;50.878;8.050;2023-12-20T04:03:33;5.28;;;2.97;;
79670;SDS011;69137;50.878;8.050;2023-12-20T04:05:59;9.90;;;3.87;;
79670;SDS011;69137;50.878;8.050;2023-12-20T04:08:24;10.43;;;3.77;;
79670;SDS011;69137;50.878;8.050;2023-12-20T04:10:49;5.33;;;3.10;;
79670;SDS011;69137;50.878;8.050;2023-12-20T04:13:14;6.20;;;3.07;;
79670;SDS011;69137;50.878;8.050;2023-12-20T04:15:40;9.27;;;3.13;;
79670;SDS011;69137;50.878;8.050;2023-12-20T04:18:05;14.77;;;4.75;;
79670;SDS011;69137;50.878;8.050;2023-12-20T04:20:30;6.43;;;3.57;;
79670;SDS011;69137;50.878;8.050;2023-12-20T04:22:56;7.63;;;3.20;;
79670;SDS011;69137;50.878;8.050;2023-12-20T04:25:21;10.97;;;3.20;;
79670;SDS011;69137;50.878;8.050;2023-12-20T04:27:46;10.13;;;3.53;;
79670;SDS011;69137;50.878;8.050;2023-12-20T04:30:12;8.13;;;3.20;;
79670;SDS011;69137;50.878;8.050;2023-12-20T04:32:38;14.65;;;4.47;;
79670;SDS011;69137;50.878;8.050;2023-12-20T04:35:04;9.00;;;4.40;;
79670;SDS011;69137;50.878;8.050;2023-12-20T04:37:29;6.15;;;3.70;;
79670;SDS011;69137;50.878;8.050;2023-12-20T04:39:54;8.70;;;3.73;;
79670;SDS011;69137;50.878;8.050;2023-12-20T04:42:20;6.63;;;3.20;;
79670;SDS011;69137;50.878;8.050;2023-12-20T04:44:45;6.70;;;3.27;;
79670;SDS011;69137;50.878;8.050;2023-12-20T04:47:10;5.30;;;3.37;;
79670;SDS011;69137;50.878;8.050;2023-12-20T04:49:36;9.60;;;3.37;;
79670;SDS011;69137;50.878;8.050;2023-12-20T04:52:01;5.70;;;3.57;;
79670;SDS011;69137;50.878;8.050;2023-12-20T04:54:26;11.67;;;4.40;;
79670;SDS011;69137;50.878;8.050;2023-12-20T04:56:51;4.87;;;3.70;;
79670;SDS011;69137;50.878;8.050;2023-12-20T04:59:17;8.33;;;3.00;;
79670;SDS011;69137;50.878;8.050;2023-12-20T05:01:42;11.90;;;4.17;;
79670;SDS011;69137;50.878;8.050;2023-12-20T05:04:07;8.57;;;4.07;;
79670;SDS011;69137;50.878;8.050;2023-12-20T05:06:32;13.27;;;4.07;;
79670;SDS011;69137;50.878;8.050;2023-12-20T05:08:58;14.87;;;4.93;;
79670;SDS011;69137;50.878;8.050;2023-12-20T05:11:23;10.73;;;4.43;;
79670;SDS011;69137;50.878;8.050;2023-12-20T05:13:48;9.00;;;4.23;;
79670;SDS011;69137;50.878;8.050;2023-12-20T05:16:13;16.67;;;5.13;;
79670;SDS011;69137;50.878;8.050;2023-12-20T05:18:39;14.10;;;4.93;;
79670;SDS011;69137;50.878;8.050;2023-12-20T05:21:05;14.43;;;4.82;;
79670;SDS011;69137;50.878;8.050;2023-12-20T05:23:30;11.67;;;4.60;;
79670;SDS011;69137;50.878;8.050;2023-12-20T05:25:55;5.47;;;3.30;;
79670;SDS011;69137;50.878;8.050;2023-12-20T05:28:20;9.33;;;4.20;;
79670;SDS011;69137;50.878;8.050;2023-12-20T05:30:46;8.87;;;3.50;;
79670;SDS011;69137;50.878;8.050;2023-12-20T05:33:11;11.70;;;4.47;;
79670;SDS011;69137;50.878;8.050;2023-12-20T05:35:36;13.03;;;4.00;;
79670;SDS011;69137;50.878;8.050;2023-12-20T05:38:02;17.08;;;4.22;;
79670;SDS011;69137;50.878;8.050;2023-12-20T05:40:27;14.57;;;4.35;;
79670;SDS011;69137;50.878;8.050;2023-12-20T05:42:53;11.68;;;3.92;;
79670;SDS011;69137;50.878;8.050;2023-12-20T05:45:18;13.48;;;3.70;;
79670;SDS011;69137;50.878;8.050;2023-12-20T05:47:44;15.77;;;3.93;;
79670;SDS011;69137;50.878;8.050;2023-12-20T05:50:09;10.57;;;3.92;;
79670;SDS011;69137;50.878;8.050;2023-12-20T05:52:35;12.82;;;3.70;;
79670;SDS011;69137;50.878;8.050;2023-12-20T05:55:00;6.90;;;3.07;;
79670;SDS011;69137;50.878;8.050;2023-12-20T05:57:28;11.40;;;3.67;;
79670;SDS011;69137;50.878;8.050;2023-12-20T05:59:53;11.40;;;3.70;;
79670;SDS011;69137;50.878;8.050;2023-12-20T06:02:18;7.18;;;3.42;;
79670;SDS011;69137;50.878;8.050;2023-12-20T06:04:44;10.07;;;3.07;;
79670;SDS011;69137;50.878;8.050;2023-12-20T06:07:13;6.68;;;3.65;;
79670;SDS011;69137;50.878;8.050;2023-12-20T06:09:38;13.65;;;3.58;;
79670;SDS011;69137;50.878;8.050;2023-12-20T06:12:04;11.13;;;3.50;;
79670;SDS011;69137;50.878;8.050;2023-12-20T06:14:29;18.58;;;4.22;;
79670;SDS011;69137;50.878;8.050;2023-12-20T06:16:55;13.73;;;3.78;;
79670;SDS011;69137;50.878;8.050;2023-12-20T06:19:21;12.23;;;4.32;;
79670;SDS011;69137;50.878;8.050;2023-12-20T06:21:47;10.70;;;4.40;;
79670;SDS011;69137;50.878;8.050;2023-12-20T06:24:12;9.55;;;4.07;;
79670;SDS011;69137;50.878;8.050;2023-12-20T06:26:37;14.23;;;4.07;;
79670;SDS011;69137;50.878;8.050;2023-12-20T06:29:03;11.20;;;5.18;;
79670;SDS011;69137;50.878;8.050;2023-12-20T06:31:28;10.57;;;4.27;;
79670;SDS011;69137;50.878;8.050;2023-12-20T06:33:54;8.32;;;3.38;;
79670;SDS011;69137;50.878;8.050;2023-12-20T06:36:22;10.70;;;3.65;;
79670;SDS011;69137;50.878;8.050;2023-12-20T06:38:53;5.75;;;3.42;;
79670;SDS011;69137;50.878;8.050;2023-12-20T06:41:19;7.30;;;3.87;;
79670;SDS011;69137;50.878;8.050;2023-12-20T06:43:44;12.00;;;4.03;;
79670;SDS011;69137;50.878;8.050;2023-12-20T06:46:09;12.13;;;3.87;;
79670;SDS011;69137;50.878;8.050;2023-12-20T06:48:35;16.75;;;4.90;;
79670;SDS011;69137;50.878;8.050;2023-12-20T06:51:00;12.50;;;4.47;;
79670;SDS011;69137;50.878;8.050;2023-12-20T06:53:29;14.88;;;3.85;;
79670;SDS011;69137;50.878;8.050;2023-12-20T06:55:54;11.23;;;3.78;;
79670;SDS011;69137;50.878;8.050;2023-12-20T06:58:21;11.90;;;3.90;;
79670;SDS011;69137;50.878;8.050;2023-12-20T07:00:46;17.30;;;4.40;;
79670;SDS011;69137;50.878;8.050;2023-12-20T07:03:12;22.35;;;5.57;;
79670;SDS011;69137;50.878;8.050;2023-12-20T07:05:37;18.17;;;4.80;;
79670;SDS011;69137;50.878;8.050;2023-12-20T07:08:02;9.55;;;3.97;;
79670;SDS011;69137;50.878;8.050;2023-12-20T07:10:28;9.43;;;4.65;;
79670;SDS011;69137;50.878;8.050;2023-12-20T07:12:53;14.87;;;5.80;;
79670;SDS011;69137;50.878;8.050;2023-12-20T07:15:20;11.88;;;4.30;;
79670;SDS011;69137;50.878;8.050;2023-12-20T07:17:45;15.82;;;4.88;;
79670;SDS011;69137;50.878;8.050;2023-12-20T07:20:11;21.53;;;5.93;;
79670;SDS011;69137;50.878;8.050;2023-12-20T07:22:36;14.88;;;4.40;;
79670;SDS011;69137;50.878;8.050;2023-12-20T07:25:02;11.60;;;3.83;;
79670;SDS011;69137;50.878;8.050;2023-12-20T07:27:27;15.43;;;4.23;;
79670;SDS011;69137;50.878;8.050;2023-12-20T07:29:52;19.17;;;4.27;;
79670;SDS011;69137;50.878;8.050;2023-12-20T07:32:18;13.20;;;4.07;;
79670;SDS011;69137;50.878;8.050;2023-12-20T07:34:43;9.05;;;3.35;;
79670;SDS011;69137;50.878;8.050;2023-12-20T07:37:08;11.87;;;5.23;;
79670;SDS011;69137;50.878;8.050;2023-12-20T07:39:36;16.05;;;4.80;;
79670;SDS011;69137;50.878;8.050;2023-12-20T07:42:02;18.38;;;5.05;;
79670;SDS011;69137;50.878;8.050;2023-12-20T07:44:27;10.65;;;4.25;;
79670;SDS011;69137;50.878;8.050;2023-12-20T07:46:52;13.27;;;5.00;;
79670;SDS011;69137;50.878;8.050;2023-12-20T07:49:18;12.07;;;4.97;;
79670;SDS011;69137;50.878;8.050;2023-12-20T07:51:44;17.23;;;4.82;;
79670;SDS011;69137;50.878;8.050;2023-12-20T07:54:09;11.30;;;5.10;;
79670;SDS011;69137;50.878;8.050;2023-12-20T07:56:34;13.13;;;4.57;;
79670;SDS011;69137;50.878;8.050;2023-12-20T07:59:00;10.63;;;4.70;;
79670;SDS011;69137;50.878;8.050;2023-12-20T08:01:26;14.70;;;5.18;;
79670;SDS011;69137;50.878;8.050;2023-12-20T08:03:51;15.10;;;4.67;;
79670;SDS011;69137;50.878;8.050;2023-12-20T08:06:16;13.53;;;6.03;;
79670;SDS011;69137;50.878;8.050;2023-12-20T08:08:42;19.00;;;5.60;;
79670;SDS011;69137;50.878;8.050;2023-12-20T08:11:07;13.73;;;5.22;;
79670;SDS011;69137;50.878;8.050;2023-12-20T08:13:33;9.77;;;4.80;;
79670;SDS011;69137;50.878;8.050;2023-12-20T08:15:58;12.93;;;5.87;;
79670;SDS011;69137;50.878;8.050;2023-12-20T08:18:24;17.42;;;6.03;;
79670;SDS011;69137;50.878;8.050;2023-12-20T08:20:49;14.37;;;5.97;;
79670;SDS011;69137;50.878;8.050;2023-12-20T08:23:15;20.30;;;5.78;;
79670;SDS011;69137;50.878;8.050;2023-12-20T08:25:40;12.45;;;3.88;;
79670;SDS011;69137;50.878;8.050;2023-12-20T08:28:05;10.33;;;4.80;;
79670;SDS011;69137;50.878;8.050;2023-12-20T08:30:31;12.70;;;4.30;;
79670;SDS011;69137;50.878;8.050;2023-12-20T08:32:59;13.05;;;4.80;;
79670;SDS011;69137;50.878;8.050;2023-12-20T08:35:25;13.23;;;5.45;;
79670;SDS011;69137;50.878;8.050;2023-12-20T08:37:51;14.60;;;4.63;;
79670;SDS011;69137;50.878;8.050;2023-12-20T08:40:16;11.20;;;4.27;;
79670;SDS011;69137;50.878;8.050;2023-12-20T08:42:41;17.57;;;4.90;;
79670;SDS011;69137;50.878;8.050;2023-12-20T08:45:06;30.27;;;4.87;;
79670;SDS011;69137;50.878;8.050;2023-12-20T08:47:32;14.07;;;3.92;;
79670;SDS011;69137;50.878;8.050;2023-12-20T08:49:57;12.20;;;4.43;;
79670;SDS011;69137;50.878;8.050;2023-12-20T08:52:25;15.05;;;4.72;;
79670;SDS011;69137;50.878;8.050;2023-12-20T08:54:52;11.10;;;4.45;;
79670;SDS011;69137;50.878;8.050;2023-12-20T08:57:19;12.80;;;4.20;;
79670;SDS011;69137;50.878;8.050;2023-12-20T08:59:49;14.27;;;4.63;;
79670;SDS011;69137;50.878;8.050;2023-12-20T09:02:14;11.10;;;4.38;;
79670;SDS011;69137;50.878;8.050;2023-12-20T09:04:40;19.52;;;4.40;;
79670;SDS011;69137;50.878;8.050;2023-12-20T09:07:05;8.80;;;3.40;;
79670;SDS011;69137;50.878;8.050;2023-12-20T09:09:32;19.35;;;4.70;;
79670;SDS011;69137;50.878;8.050;2023-12-20T09:11:58;10.82;;;3.92;;
79670;SDS011;69137;50.878;8.050;2023-12-20T09:14:23;17.67;;;5.30;;
79670;SDS011;69137;50.878;8.050;2023-12-20T09:16:49;11.03;;;3.87;;
79670;SDS011;69137;50.878;8.050;2023-12-20T09:19:16;18.30;;;4.60;;
79670;SDS011;69137;50.878;8.050;2023-12-20T09:21:42;15.43;;;4.30;;
79670;SDS011;69137;50.878;8.050;2023-12-20T09:24:07;11.70;;;4.20;;
79670;SDS011;69137;50.878;8.050;2023-12-20T09:26:33;13.82;;;4.35;;
79670;SDS011;69137;50.878;8.050;2023-12-20T09:28:58;16.50;;;4.33;;
79670;SDS011;69137;50.878;8.050;2023-12-20T09:31:24;15.23;;;5.07;;
79670;SDS011;69137;50.878;8.050;2023-12-20T09:33:49;12.90;;;5.30;;
79670;SDS011;69137;50.878;8.050;2023-12-20T09:36:14;17.93;;;5.27;;
79670;SDS011;69137;50.878;8.050;2023-12-20T09:38:39;15.17;;;5.37;;
79670;SDS011;69137;50.878;8.050;2023-12-20T09:41:05;18.30;;;5.20;;
79670;SDS011;69137;50.878;8.050;2023-12-20T09:43:30;13.40;;;5.25;;
79670;SDS011;69137;50.878;8.050;2023-12-20T09:46:00;20.58;;;5.35;;
79670;SDS011;69137;50.878;8.050;2023-12-20T09:48:27;13.32;;;4.65;;
79670;SDS011;69137;50.878;8.050;2023-12-20T09:50:52;9.98;;;5.63;;
79670;SDS011;69137;50.878;8.050;2023-12-20T09:53:18;19.63;;;5.83;;
79670;SDS011;69137;50.878;8.050;2023-12-20T09:55:44;12.20;;;5.00;;
79670;SDS011;69137;50.878;8.050;2023-12-20T09:58:10;10.25;;;4.18;;
79670;SDS011;69137;50.878;8.050;2023-12-20T10:00:35;14.77;;;5.10;;
79670;SDS011;69137;50.878;8.050;2023-12-20T10:03:00;12.02;;;4.57;;
79670;SDS011;69137;50.878;8.050;2023-12-20T10:05:30;10.18;;;4.63;;
79670;SDS011;69137;50.878;8.050;2023-12-20T10:07:57;12.48;;;4.40;;
79670;SDS011;69137;50.878;8.050;2023-12-20T10:10:23;9.00;;;4.80;;
79670;SDS011;69137;50.878;8.050;2023-12-20T10:13:05;13.65;;;4.18;;
79670;SDS011;69137;50.878;8.050;2023-12-20T10:15:33;14.93;;;5.82;;
79670;SDS011;69137;50.878;8.050;2023-12-20T10:17:59;11.82;;;4.78;;
79670;SDS011;69137;50.878;8.050;2023-12-20T10:20:24;13.48;;;5.72;;
79670;SDS011;69137;50.878;8.050;2023-12-20T10:22:50;14.50;;;4.90;;
79670;SDS011;69137;50.878;8.050;2023-12-20T10:25:18;16.48;;;4.90;;
79670;SDS011;69137;50.878;8.050;2023-12-20T10:27:43;18.85;;;5.38;;
79670;SDS011;69137;50.878;8.050;2023-12-20T10:30:09;13.20;;;4.33;;
79670;SDS011;69137;50.878;8.050;2023-12-20T10:32:35;13.20;;;4.28;;
79670;SDS011;69137;50.878;8.050;2023-12-20T10:35:00;21.13;;;4.30;;
79670;SDS011;69137;50.878;8.050;2023-12-20T10:37:25;16.05;;;4.25;;
79670;SDS011;69137;50.878;8.050;2023-12-20T10:39:52;11.77;;;4.23;;
79670;SDS011;69137;50.878;8.050;2023-12-20T10:42:27;9.18;;;4.20;;
79670;SDS011;69137;50.878;8.050;2023-12-20T10:44:53;10.57;;;4.43;;
79670;SDS011;69137;50.878;8.050;2023-12-20T10:47:19;19.60;;;4.70;;
79670;SDS011;69137;50.878;8.050;2023-12-20T10:49:45;12.10;;;4.55;;
79670;SDS011;69137;50.878;8.050;2023-12-20T10:52:11;21.30;;;4.75;;
79670;SDS011;69137;50.878;8.050;2023-12-20T10:54:37;10.57;;;4.10;;
79670;SDS011;69137;50.878;8.050;2023-12-20T10:57:05;13.23;;;4.00;;
79670;SDS011;69137;50.878;8.050;2023-12-20T10:59:32;10.52;;;3.72;;
79670;SDS011;69137;50.878;8.050;2023-12-20T11:02:01;8.05;;;3.85;;
79670;SDS011;69137;50.878;8.050;2023-12-20T11:04:33;13.95;;;4.82;;
79670;SDS011;69137;50.878;8.050;2023-12-20T11:10:29;8.18;;;3.40;;
79670;SDS011;69137;50.878;8.050;2023-12-20T11:13:07;15.05;;;4.68;;
79670;SDS011;69137;50.878;8.050;2023-12-20T11:15:37;10.55;;;3.88;;
79670;SDS011;69137;50.878;8.050;2023-12-20T11:18:03;17.00;;;4.43;;
79670;SDS011;69137;50.878;8.050;2023-12-20T11:20:39;11.00;;;3.28;;
79670;SDS011;69137;50.878;8.050;2023-12-20T11:23:06;13.18;;;4.05;;
79670;SDS011;69137;50.878;8.050;2023-12-20T11:28:21;12.55;;;3.65;;
79670;SDS011;69137;50.878;8.050;2023-12-20T11:30:49;15.25;;;4.18;;
79670;SDS011;69137;50.878;8.050;2023-12-20T11:33:26;10.27;;;3.55;;
79670;SDS011;69137;50.878;8.050;2023-12-20T11:36:01;16.52;;;3.92;;
79670;SDS011;69137;50.878;8.050;2023-12-20T11:38:27;11.02;;;3.50;;
79670;SDS011;69137;50.878;8.050;2023-12-20T11:41:00;11.50;;;3.65;;
79670;SDS011;69137;50.878;8.050;2023-12-20T11:46:06;8.68;;;3.75;;
79670;SDS011;69137;50.878;8.050;2023-12-20T11:48:37;7.85;;;3.55;;
79670;SDS011;69137;50.878;8.050;2023-12-20T11:51:10;7.75;;;3.47;;
79670;SDS011;69137;50.878;8.050;2023-12-20T11:53:41;9.45;;;3.78;;
79670;SDS011;69137;50.878;8.050;2023-12-20T11:56:10;7.20;;;3.60;;
79670;SDS011;69137;50.878;8.050;2023-12-20T11:58:36;10.60;;;3.60;;
79670;SDS011;69137;50.878;8.050;2023-12-20T12:01:01;13.52;;;4.00;;
79670;SDS011;69137;50.878;8.050;2023-12-20T12:03:27;13.73;;;3.67;;
79670;SDS011;69137;50.878;8.050;2023-12-20T12:05:53;9.27;;;4.35;;
79670;SDS011;69137;50.878;8.050;2023-12-20T12:08:18;9.93;;;3.60;;
79670;SDS011;69137;50.878;8.050;2023-12-20T12:10:44;14.83;;;4.50;;
79670;SDS011;69137;50.878;8.050;2023-12-20T12:13:09;10.63;;;3.33;;
79670;SDS011;69137;50.878;8.050;2023-12-20T12:15:36;13.88;;;3.70;;
79670;SDS011;69137;50.878;8.050;2023-12-20T12:18:02;15.60;;;4.30;;
79670;SDS011;69137;50.878;8.050;2023-12-20T12:20:28;19.20;;;3.92;;
79670;SDS011;69137;50.878;8.050;2023-12-20T12:23:03;10.90;;;3.70;;
79670;SDS011;69137;50.878;8.050;2023-12-20T12:25:30;10.40;;;4.38;;
79670;SDS011;69137;50.878;8.050;2023-12-20T12:27:56;17.85;;;3.28;;
79670;SDS011;69137;50.878;8.050;2023-12-20T12:30:22;16.85;;;5.20;;
79670;SDS011;69137;50.878;8.050;2023-12-20T12:32:48;12.73;;;3.70;;
79670;SDS011;69137;50.878;8.050;2023-12-20T12:35:13;16.57;;;3.83;;
79670;SDS011;69137;50.878;8.050;2023-12-20T12:37:39;6.50;;;2.90;;
79670;SDS011;69137;50.878;8.050;2023-12-20T12:40:15;7.90;;;3.40;;
79670;SDS011;69137;50.878;8.050;2023-12-20T12:42:43;10.77;;;3.47;;
79670;SDS011;69137;50.878;8.050;2023-12-20T12:45:09;5.20;;;2.65;;
79670;SDS011;69137;50.878;8.050;2023-12-20T12:47:36;6.50;;;2.63;;
79670;SDS011;69137;50.878;8.050;2023-12-20T12:50:02;11.50;;;4.35;;
79670;SDS011;69137;50.878;8.050;2023-12-20T12:52:28;11.27;;;4.32;;
79670;SDS011;69137;50.878;8.050;2023-12-20T12:54:55;10.60;;;3.75;;
79670;SDS011;69137;50.878;8.050;2023-12-20T12:57:20;18.83;;;5.13;;
79670;SDS011;69137;50.878;8.050;2023-12-20T12:59:46;13.23;;;4.35;;
79670;SDS011;69137;50.878;8.050;2023-12-20T13:02:14;16.70;;;4.53;;
79670;SDS011;69137;50.878;8.050;2023-12-20T13:07:06;10.40;;;3.60;;
79670;SDS011;69137;50.878;8.050;2023-12-20T13:09:31;15.43;;;4.60;;
79670;SDS011;69137;50.878;8.050;2023-12-20T13:11:56;10.40;;;4.10;;
79670;SDS011;69137;50.878;8.050;2023-12-20T13:14:22;11.73;;;4.17;;
79670;SDS011;69137;50.878;8.050;2023-12-20T13:16:47;12.63;;;4.47;;
79670;SDS011;69137;50.878;8.050;2023-12-20T13:19:12;9.03;;;3.90;;
79670;SDS011;69137;50.878;8.050;2023-12-20T13:21:38;7.87;;;3.33;;
79670;SDS011;69137;50.878;8.050;2023-12-20T13:24:03;8.25;;;4.00;;
79670;SDS011;69137;50.878;8.050;2023-12-20T13:26:29;10.30;;;4.22;;
79670;SDS011;69137;50.878;8.050;2023-12-20T13:28:54;10.20;;;3.93;;
79670;SDS011;69137;50.878;8.050;2023-12-20T13:31:20;6.15;;;3.08;;
79670;SDS011;69137;50.878;8.050;2023-12-20T13:33:45;8.98;;;3.10;;
79670;SDS011;69137;50.878;8.050;2023-12-20T13:36:10;8.13;;;3.83;;
79670;SDS011;69137;50.878;8.050;2023-12-20T13:38:36;7.93;;;3.08;;
79670;SDS011;69137;50.878;8.050;2023-12-20T13:41:01;8.90;;;3.63;;
79670;SDS011;69137;50.878;8.050;2023-12-20T13:43:27;6.82;;;3.22;;
79670;SDS011;69137;50.878;8.050;2023-12-20T13:45:52;4.10;;;2.60;;
79670;SDS011;69137;50.878;8.050;2023-12-20T13:48:18;6.88;;;3.38;;
79670;SDS011;69137;50.878;8.050;2023-12-20T13:50:43;6.30;;;3.20;;
79670;SDS011;69137;50.878;8.050;2023-12-20T13:53:09;6.47;;;3.88;;
79670;SDS011;69137;50.878;8.050;2023-12-20T13:55:34;8.27;;;3.65;;
79670;SDS011;69137;50.878;8.050;2023-12-20T13:57:59;8.90;;;3.47;;
79670;SDS011;69137;50.878;8.050;2023-12-20T14:00:25;5.50;;;2.63;;
79670;SDS011;69137;50.878;8.050;2023-12-20T14:02:50;11.60;;;3.75;;
79670;SDS011;69137;50.878;8.050;2023-12-20T14:05:16;6.33;;;3.00;;
79670;SDS011;69137;50.878;8.050;2023-12-20T14:07:43;7.38;;;3.53;;
79670;SDS011;69137;50.878;8.050;2023-12-20T14:10:12;6.63;;;3.17;;
79670;SDS011;69137;50.878;8.050;2023-12-20T14:12:41;8.93;;;2.85;;
79670;SDS011;69137;50.878;8.050;2023-12-20T14:15:07;6.90;;;2.70;;
79670;SDS011;69137;50.878;8.050;2023-12-20T14:17:39;6.18;;;3.10;;
79670;SDS011;69137;50.878;8.050;2023-12-20T14:20:06;6.43;;;3.15;;
79670;SDS011;69137;50.878;8.050;2023-12-20T14:22:32;4.82;;;2.95;;
79670;SDS011;69137;50.878;8.050;2023-12-20T14:24:57;12.52;;;4.00;;
79670;SDS011;69137;50.878;8.050;2023-12-20T14:27:23;12.77;;;4.18;;
79670;SDS011;69137;50.878;8.050;2023-12-20T14:29:49;7.60;;;3.70;;
79670;SDS011;69137;50.878;8.050;2023-12-20T14:32:15;8.27;;;3.17;;
79670;SDS011;69137;50.878;8.050;2023-12-20T14:34:40;7.00;;;2.63;;
79670;SDS011;69137;50.878;8.050;2023-12-20T14:37:06;10.77;;;3.25;;
79670;SDS011;69137;50.878;8.050;2023-12-20T14:39:31;8.63;;;3.27;;
79670;SDS011;69137;50.878;8.050;2023-12-20T14:41:56;11.33;;;3.83;;
79670;SDS011;69137;50.878;8.050;2023-12-20T14:44:22;10.27;;;3.35;;